Time;durP1;ratioP1;P1;durP2;ratioP2;P2;SDS_P1;SDS_P2;PMS_P1;PMS_P2;Temp;Humidity;BMP_temperature;BMP_pressure;BME280_temperature;BME280_humidity;BME280_pressure;Samples;Min_cycle;Max_cycle;Signal;HPM_P1;HPM_P2
2021/05/08 00:00:59;;;;;;;2.10;1.40;;;9.50;93.50;;;;;;5051937;28;20059;-68
2021/05/08 00:03:26;;;;;;;2.47;1.35;;;9.40;93.50;;;;;;5050771;28;20045;-68
2021/05/08 00:05:52;;;;;;;4.05;1.73;;;9.40;93.20;;;;;;5033542;28;20052;-68
2021/05/08 00:08:18;;;;;;;2.90;1.25;;;9.40;92.40;;;;;;5028189;28;20069;-68
2021/05/08 00:10:45;;;;;;;5.00;2.13;;;9.30;92.20;;;;;;5034424;28;20057;-68
2021/05/08 00:13:12;;;;;;;2.50;1.40;;;9.30;91.90;;;;;;5020858;28;20103;-68
2021/05/08 00:15:38;;;;;;;2.72;1.10;;;9.40;91.70;;;;;;5031196;28;20090;-68
2021/05/08 00:18:05;;;;;;;2.45;1.50;;;9.30;91.10;;;;;;5033264;28;20048;-68
2021/05/08 00:20:32;;;;;;;2.25;1.00;;;9.40;91.00;;;;;;5041263;28;20057;-68
2021/05/08 00:22:59;;;;;;;3.20;1.92;;;9.40;90.70;;;;;;5049268;28;20403;-68
2021/05/08 00:25:26;;;;;;;1.77;1.38;;;9.40;90.30;;;;;;5038909;28;20592;-68
2021/05/08 00:27:52;;;;;;;2.42;0.98;;;9.40;90.30;;;;;;5017549;28;20064;-68
2021/05/08 00:30:19;;;;;;;2.65;1.33;;;9.30;90.30;;;;;;5043221;28;20056;-68
2021/05/08 00:32:46;;;;;;;2.55;1.27;;;9.30;90.30;;;;;;5050255;28;20049;-68
2021/05/08 00:35:12;;;;;;;4.43;1.02;;;9.20;90.50;;;;;;5012133;28;20143;-68
2021/05/08 00:37:39;;;;;;;4.32;1.42;;;9.20;90.60;;;;;;5033985;28;20063;-68
2021/05/08 00:40:06;;;;;;;3.63;1.60;;;9.20;90.60;;;;;;5034249;28;20045;-68
2021/05/08 00:42:33;;;;;;;2.30;1.20;;;9.20;90.60;;;;;;5016988;28;20053;-68
2021/05/08 00:44:59;;;;;;;2.30;1.23;;;9.10;90.60;;;;;;5033390;28;20072;-68
2021/05/08 00:47:26;;;;;;;5.10;1.70;;;9.10;90.70;;;;;;5047915;28;20057;-68
2021/05/08 00:49:53;;;;;;;2.35;1.00;;;9.20;90.80;;;;;;5050155;28;20047;-68
2021/05/08 00:52:20;;;;;;;3.63;1.70;;;9.10;90.60;;;;;;5030503;28;20060;-68
2021/05/08 00:54:47;;;;;;;2.55;1.33;;;9.10;91.00;;;;;;5031960;28;20389;-68
2021/05/08 00:57:14;;;;;;;4.32;2.42;;;9.00;91.00;;;;;;5026372;28;20044;-68
2021/05/08 00:59:40;;;;;;;4.88;2.08;;;8.90;91.20;;;;;;5051310;28;20076;-68
2021/05/08 01:02:07;;;;;;;4.47;2.03;;;8.80;91.30;;;;;;5051228;28;20053;-68
2021/05/08 01:04:34;;;;;;;4.65;2.45;;;8.60;91.80;;;;;;5032665;28;20064;-68
2021/05/08 01:07:02;;;;;;;4.15;2.08;;;8.60;92.00;;;;;;5024459;28;20068;-68
2021/05/08 01:09:31;;;;;;;5.80;2.58;;;8.50;91.80;;;;;;5006331;28;20060;-68
2021/05/08 01:11:58;;;;;;;4.70;1.77;;;8.50;92.10;;;;;;5032104;28;20859;-68
2021/05/08 01:14:25;;;;;;;4.05;1.70;;;8.40;92.40;;;;;;5043212;28;20049;-68
2021/05/08 01:16:52;;;;;;;4.60;1.73;;;8.30;92.30;;;;;;5026392;28;20049;-68
2021/05/08 01:19:22;;;;;;;4.28;1.95;;;8.30;92.50;;;;;;5031146;28;20053;-68
2021/05/08 01:21:48;;;;;;;2.65;1.45;;;8.30;92.60;;;;;;5026769;28;20037;-68
2021/05/08 01:24:15;;;;;;;3.72;1.85;;;8.20;93.00;;;;;;5049966;28;20048;-68
2021/05/08 01:26:42;;;;;;;3.97;1.70;;;8.10;93.10;;;;;;5015635;28;20118;-68
2021/05/08 01:29:09;;;;;;;2.08;1.20;;;8.10;93.10;;;;;;5049541;28;20651;-68
2021/05/08 01:31:36;;;;;;;2.08;1.45;;;8.10;93.00;;;;;;5032010;28;20073;-68
2021/05/08 01:34:03;;;;;;;3.70;1.38;;;8.20;92.50;;;;;;5030566;28;20044;-68
2021/05/08 01:36:32;;;;;;;2.47;1.13;;;8.30;92.30;;;;;;5029364;28;20048;-68
2021/05/08 01:39:04;;;;;;;2.53;1.17;;;8.30;92.40;;;;;;5031893;28;20483;-68
2021/05/08 01:41:32;;;;;;;2.45;1.10;;;8.40;91.80;;;;;;5035198;28;20130;-68
2021/05/08 01:43:58;;;;;;;4.50;1.42;;;8.40;91.80;;;;;;5046693;28;20048;-68
2021/05/08 01:46:25;;;;;;;3.95;1.25;;;8.40;92.10;;;;;;5030412;28;20045;-68
2021/05/08 01:48:59;;;;;;;2.33;1.33;;;8.40;91.40;;;;;;5051195;28;20045;-68
2021/05/08 01:51:26;;;;;;;2.08;0.88;;;8.40;91.40;;;;;;5028590;28;20488;-68
2021/05/08 01:53:53;;;;;;;2.47;1.00;;;8.40;91.70;;;;;;5028260;28;20110;-68
2021/05/08 01:56:19;;;;;;;2.05;0.98;;;8.50;91.40;;;;;;5045243;28;20053;-68
2021/05/08 01:58:48;;;;;;;4.07;1.30;;;8.30;91.50;;;;;;5049515;28;20491;-68
2021/05/08 02:01:16;;;;;;;3.30;1.38;;;8.40;91.40;;;;;;5015371;28;20052;-68
2021/05/08 02:03:46;;;;;;;2.80;1.30;;;8.30;91.30;;;;;;5020659;28;20407;-68
2021/05/08 02:06:13;;;;;;;2.67;1.17;;;8.30;91.40;;;;;;5025124;28;20108;-68
2021/05/08 02:08:46;;;;;;;2.92;1.20;;;8.30;91.50;;;;;;5021009;28;20046;-68
2021/05/08 02:11:19;;;;;;;2.42;0.90;;;8.30;91.30;;;;;;5024170;28;20103;-68
2021/05/08 02:13:46;;;;;;;2.63;1.30;;;8.30;91.20;;;;;;5011729;28;20049;-68
2021/05/08 02:16:13;;;;;;;3.55;1.17;;;8.30;91.60;;;;;;5016255;28;20052;-68
2021/05/08 02:18:40;;;;;;;3.90;1.42;;;8.30;91.30;;;;;;5050180;28;20148;-68
2021/05/08 02:21:08;;;;;;;3.13;1.08;;;8.30;91.40;;;;;;5041162;28;20046;-68
2021/05/08 02:23:34;;;;;;;2.00;1.02;;;8.20;91.50;;;;;;5029905;28;20045;-68
2021/05/08 02:26:01;;;;;;;1.92;0.95;;;8.20;91.90;;;;;;5028310;28;20048;-68
2021/05/08 02:28:29;;;;;;;2.53;0.93;;;8.20;92.40;;;;;;5009986;28;20037;-68
2021/05/08 02:30:55;;;;;;;5.18;1.30;;;8.10;92.10;;;;;;5032215;28;20091;-68
2021/05/08 02:33:29;;;;;;;2.40;1.17;;;8.10;92.30;;;;;;5048463;28;20144;-68
2021/05/08 02:35:55;;;;;;;2.00;0.80;;;8.00;92.70;;;;;;5031121;28;20095;-68
2021/05/08 02:38:22;;;;;;;4.68;1.42;;;7.90;93.20;;;;;;5031701;28;20041;-68
2021/05/08 02:40:50;;;;;;;2.80;1.15;;;7.90;93.20;;;;;;5031190;28;20045;-68
2021/05/08 02:43:17;;;;;;;2.10;1.08;;;7.70;94.10;;;;;;5048373;28;20057;-68
2021/05/08 02:45:48;;;;;;;4.88;1.33;;;7.60;94.30;;;;;;5029101;28;20135;-68
2021/05/08 02:48:15;;;;;;;3.47;1.25;;;7.70;94.40;;;;;;5027833;28;20072;-68
2021/05/08 02:50:49;;;;;;;4.82;1.20;;;7.70;94.30;;;;;;5030174;28;20565;-68
2021/05/08 02:53:16;;;;;;;3.83;1.45;;;7.70;94.50;;;;;;5030677;28;20412;-68
2021/05/08 02:55:43;;;;;;;3.03;1.33;;;7.70;94.30;;;;;;5030714;28;20057;-68
2021/05/08 02:58:09;;;;;;;2.08;1.10;;;7.60;94.40;;;;;;5035348;28;20064;-68
2021/05/08 03:00:39;;;;;;;2.58;1.20;;;7.50;94.50;;;;;;5052819;28;20049;-68
2021/05/08 03:03:11;;;;;;;2.63;1.27;;;7.40;94.70;;;;;;5053602;28;20512;-68
2021/05/08 03:05:40;;;;;;;2.75;1.00;;;7.40;94.80;;;;;;5032134;28;20053;-68
2021/05/08 03:08:20;;;;;;;3.22;1.45;;;7.40;94.70;;;;;;5041140;28;20515;-68
2021/05/08 03:10:49;;;;;;;5.60;1.60;;;7.40;94.90;;;;;;5032876;28;20047;-68
2021/05/08 03:13:18;;;;;;;4.30;1.25;;;7.40;94.90;;;;;;5029073;28;20045;-68
2021/05/08 03:15:45;;;;;;;3.13;1.40;;;7.30;94.80;;;;;;5034591;28;20500;-68
2021/05/08 03:18:12;;;;;;;3.53;1.65;;;7.40;94.90;;;;;;5023658;28;20080;-68
2021/05/08 03:20:39;;;;;;;7.15;1.55;;;7.40;94.90;;;;;;5037674;28;20466;-68
2021/05/08 03:23:05;;;;;;;4.05;1.20;;;7.40;94.50;;;;;;5031606;28;20106;-68
2021/05/08 03:25:33;;;;;;;2.92;1.42;;;7.40;94.60;;;;;;5052755;28;20059;-68
2021/05/08 03:28:00;;;;;;;2.72;1.33;;;7.40;94.60;;;;;;5016331;28;20048;-68
2021/05/08 03:30:29;;;;;;;3.08;1.08;;;7.50;94.70;;;;;;5008342;28;20061;-68
2021/05/08 03:32:59;;;;;;;3.97;1.60;;;7.50;94.70;;;;;;5020021;28;20057;-68
2021/05/08 03:35:26;;;;;;;4.90;2.17;;;7.50;94.50;;;;;;5032693;28;20057;-68
2021/05/08 03:37:53;;;;;;;5.00;2.17;;;7.50;95.10;;;;;;5015107;28;20496;-68
2021/05/08 03:40:20;;;;;;;5.00;1.73;;;7.50;94.70;;;;;;5048144;28;20064;-68
2021/05/08 03:42:46;;;;;;;6.40;2.80;;;7.50;94.70;;;;;;5035796;28;20731;-68
2021/05/08 03:45:13;;;;;;;8.80;3.50;;;7.50;95.10;;;;;;5029007;28;20045;-68
2021/05/08 03:47:40;;;;;;;4.30;1.45;;;7.50;95.00;;;;;;5032897;28;20049;-68
2021/05/08 03:50:07;;;;;;;3.25;1.27;;;7.40;95.10;;;;;;5034938;28;20492;-68
2021/05/08 03:52:34;;;;;;;4.97;1.63;;;7.50;95.10;;;;;;5053292;28;20391;-68
2021/05/08 03:55:02;;;;;;;7.25;2.03;;;7.50;95.20;;;;;;5045167;28;20098;-68
2021/05/08 03:57:29;;;;;;;8.23;2.90;;;7.40;95.30;;;;;;5029712;28;20535;-68
2021/05/08 03:59:57;;;;;;;6.35;1.80;;;7.50;95.30;;;;;;5046207;28;20838;-68
2021/05/08 04:02:24;;;;;;;4.93;1.75;;;7.50;96.60;;;;;;5049537;28;20053;-68
2021/05/08 04:04:50;;;;;;;3.47;1.30;;;7.60;96.50;;;;;;5051236;28;20083;-68
2021/05/08 04:07:17;;;;;;;4.30;2.05;;;7.60;96.80;;;;;;5033118;28;20053;-68
2021/05/08 04:09:44;;;;;;;4.05;1.73;;;7.60;96.30;;;;;;5035958;28;20558;-68
2021/05/08 04:12:11;;;;;;;4.10;1.30;;;7.60;96.20;;;;;;5023129;28;20041;-68
2021/05/08 04:14:37;;;;;;;4.18;1.75;;;7.70;95.70;;;;;;5031337;28;20041;-68
2021/05/08 04:17:04;;;;;;;4.53;1.10;;;7.70;95.60;;;;;;5033131;28;20036;-68
2021/05/08 04:19:30;;;;;;;9.02;2.63;;;7.70;95.40;;;;;;5035050;28;20044;-68
2021/05/08 04:21:57;;;;;;;10.05;3.20;;;7.70;95.30;;;;;;5034585;28;20052;-68
2021/05/08 04:24:23;;;;;;;7.45;2.40;;;7.70;95.40;;;;;;5028091;28;20488;-68
2021/05/08 04:26:50;;;;;;;3.65;1.33;;;7.70;95.20;;;;;;5034604;28;20053;-68
2021/05/08 04:29:18;;;;;;;4.53;1.85;;;7.70;94.80;;;;;;5031650;28;20124;-68
2021/05/08 04:31:44;;;;;;;6.13;1.42;;;7.80;95.00;;;;;;5017638;28;20064;-68
2021/05/08 04:34:11;;;;;;;4.60;1.55;;;7.90;94.80;;;;;;5031938;28;20060;-68
2021/05/08 04:36:37;;;;;;;4.03;1.70;;;8.00;94.20;;;;;;5044759;28;20049;-68
2021/05/08 04:39:05;;;;;;;3.47;1.38;;;8.10;93.80;;;;;;5015535;28;20122;-68
2021/05/08 04:41:31;;;;;;;4.00;1.52;;;8.20;93.90;;;;;;5026764;28;20065;-68
2021/05/08 04:43:58;;;;;;;4.32;1.55;;;8.20;94.00;;;;;;5027955;28;20051;-68
2021/05/08 04:46:25;;;;;;;3.90;1.80;;;8.30;94.20;;;;;;5032251;28;20488;-68
2021/05/08 04:48:53;;;;;;;4.88;2.00;;;8.40;93.40;;;;;;5049247;28;20140;-68
2021/05/08 04:51:21;;;;;;;3.60;1.55;;;8.40;93.10;;;;;;5030821;28;20052;-68
2021/05/08 04:53:51;;;;;;;3.30;1.40;;;8.50;92.90;;;;;;5025330;28;20045;-68
2021/05/08 04:56:17;;;;;;;3.95;1.50;;;8.50;92.30;;;;;;5030298;28;20052;-68
2021/05/08 04:58:44;;;;;;;4.13;1.80;;;8.50;92.10;;;;;;5015653;28;20056;-68
2021/05/08 05:01:11;;;;;;;3.97;1.80;;;8.60;92.60;;;;;;5011708;28;20103;-68
2021/05/08 05:03:37;;;;;;;5.40;2.28;;;8.70;92.20;;;;;;5047724;28;20071;-68
2021/05/08 05:06:05;;;;;;;6.82;2.78;;;8.80;92.10;;;;;;5050095;28;20041;-68
2021/05/08 05:08:31;;;;;;;5.20;2.08;;;8.80;91.90;;;;;;5015582;28;20045;-68
2021/05/08 05:10:58;;;;;;;4.68;1.83;;;8.90;91.50;;;;;;5030265;28;20064;-68
2021/05/08 05:13:25;;;;;;;3.42;1.45;;;8.90;91.80;;;;;;5039286;28;20068;-68
2021/05/08 05:15:52;;;;;;;5.78;2.10;;;9.00;92.10;;;;;;5030808;28;20411;-68
2021/05/08 05:18:18;;;;;;;5.43;1.98;;;9.10;91.40;;;;;;5049715;28;20491;-68
2021/05/08 05:20:45;;;;;;;4.78;1.60;;;9.10;91.50;;;;;;5017496;28;20072;-68
2021/05/08 05:23:13;;;;;;;4.68;1.85;;;9.00;91.00;;;;;;5012118;28;20497;-68
2021/05/08 05:25:40;;;;;;;3.70;1.38;;;9.00;91.60;;;;;;5026193;28;20053;-67
2021/05/08 05:28:24;;;;;;;4.38;1.90;;;9.10;91.80;;;;;;5006785;28;20060;-68
2021/05/08 05:30:52;;;;;;;4.57;1.90;;;9.10;91.40;;;;;;5028353;28;20444;-68
2021/05/08 05:33:19;;;;;;;3.90;2.05;;;9.20;91.40;;;;;;5029948;28;20053;-68
2021/05/08 05:35:54;;;;;;;9.73;2.42;;;9.30;91.30;;;;;;5029026;28;20061;-68
2021/05/08 05:38:22;;;;;;;4.85;2.35;;;9.40;90.30;;;;;;5007182;28;20065;-68
2021/05/08 05:40:52;;;;;;;5.32;2.13;;;9.50;89.50;;;;;;5019061;28;20077;-68
2021/05/08 05:43:19;;;;;;;8.45;3.30;;;9.60;88.50;;;;;;5011923;28;20049;-68
2021/05/08 05:45:46;;;;;;;8.57;3.30;;;9.60;88.20;;;;;;5011868;28;20088;-68
2021/05/08 05:48:13;;;;;;;6.13;2.47;;;9.70;86.60;;;;;;5004199;28;20048;-67
2021/05/08 05:50:41;;;;;;;5.50;2.83;;;9.80;86.50;;;;;;5001983;28;20049;-68
2021/05/08 05:53:08;;;;;;;5.70;2.30;;;9.90;86.30;;;;;;5024553;28;20121;-68
2021/05/08 05:55:35;;;;;;;5.47;2.20;;;10.00;86.50;;;;;;4988422;28;20057;-68
2021/05/08 05:58:02;;;;;;;4.50;2.00;;;10.10;87.60;;;;;;5009003;28;20041;-68
2021/05/08 06:00:29;;;;;;;4.65;2.03;;;10.10;87.00;;;;;;5022956;28;20053;-68
2021/05/08 06:02:55;;;;;;;4.85;2.10;;;10.20;84.70;;;;;;5006543;28;20388;-68
2021/05/08 06:05:22;;;;;;;4.22;2.25;;;10.30;84.30;;;;;;4994296;28;20056;-67
2021/05/08 06:07:48;;;;;;;3.08;1.77;;;10.30;81.80;;;;;;5027753;28;20372;-67
2021/05/08 06:10:15;;;;;;;2.67;1.20;;;10.30;82.70;;;;;;5025897;28;20041;-67
2021/05/08 06:12:42;;;;;;;4.18;1.58;;;10.40;82.20;;;;;;5028838;28;20846;-67
2021/05/08 06:15:10;;;;;;;2.28;1.33;;;10.40;82.10;;;;;;5009969;28;20053;-67
2021/05/08 06:17:37;;;;;;;3.80;1.83;;;10.40;81.00;;;;;;4998397;28;20136;-67
2021/05/08 06:20:06;;;;;;;3.25;1.58;;;10.50;81.40;;;;;;5014196;28;20057;-67
2021/05/08 06:22:33;;;;;;;3.95;2.15;;;10.50;79.20;;;;;;5025415;28;20159;-67
2021/05/08 06:25:00;;;;;;;4.45;1.88;;;10.60;80.40;;;;;;5027217;28;20049;-67
2021/05/08 06:27:27;;;;;;;4.72;1.80;;;10.60;82.60;;;;;;5046057;28;20057;-67
2021/05/08 06:29:55;;;;;;;3.08;1.90;;;10.60;79.20;;;;;;5046850;28;20558;-67
2021/05/08 06:32:22;;;;;;;4.05;1.77;;;10.60;77.90;;;;;;5047703;28;20052;-67
2021/05/08 06:34:49;;;;;;;5.68;1.88;;;10.60;80.70;;;;;;5030975;28;20048;-67
2021/05/08 06:37:17;;;;;;;4.35;1.50;;;10.70;79.10;;;;;;5029571;28;20049;-67
2021/05/08 06:39:43;;;;;;;4.18;1.58;;;10.80;79.40;;;;;;5049871;28;20528;-67
2021/05/08 06:42:10;;;;;;;3.78;1.98;;;10.80;79.00;;;;;;5015775;28;20098;-67
2021/05/08 06:44:37;;;;;;;2.50;1.40;;;10.90;77.60;;;;;;5032200;28;20447;-67
2021/05/08 06:47:04;;;;;;;3.42;1.77;;;10.90;77.30;;;;;;5030885;28;20049;-67
2021/05/08 06:49:30;;;;;;;4.20;1.52;;;11.00;79.10;;;;;;5028664;28;20430;-67
2021/05/08 06:51:57;;;;;;;3.53;1.50;;;11.00;78.90;;;;;;5048556;28;20053;-67
2021/05/08 06:54:27;;;;;;;3.53;1.67;;;11.10;78.70;;;;;;5027406;28;20498;-67
2021/05/08 06:56:54;;;;;;;5.47;1.80;;;11.20;77.20;;;;;;5052851;28;20045;-67
2021/05/08 06:59:20;;;;;;;3.85;1.83;;;11.20;76.70;;;;;;5048701;28;20593;-67
2021/05/08 07:01:46;;;;;;;4.35;1.50;;;11.10;75.50;;;;;;5047746;28;20066;-67
2021/05/08 07:04:13;;;;;;;3.47;1.58;;;11.20;75.30;;;;;;5029750;28;20119;-67
2021/05/08 07:06:40;;;;;;;2.45;1.40;;;11.30;78.30;;;;;;5041790;28;20053;-67
2021/05/08 07:09:06;;;;;;;1.48;0.70;;;11.40;75.90;;;;;;5047700;28;20044;-67
2021/05/08 07:11:33;;;;;;;3.05;0.95;;;11.50;73.40;;;;;;5030262;28;20056;-67
2021/05/08 07:13:59;;;;;;;1.58;0.93;;;11.60;73.40;;;;;;5010914;28;20051;-67
2021/05/08 07:16:26;;;;;;;2.03;0.75;;;11.50;71.30;;;;;;5029275;28;20061;-67
2021/05/08 07:18:52;;;;;;;3.53;1.40;;;11.60;71.60;;;;;;5048437;28;20487;-67
2021/05/08 07:21:19;;;;;;;2.60;1.23;;;11.60;71.70;;;;;;5013952;28;20420;-67
2021/05/08 07:23:46;;;;;;;2.63;1.23;;;11.60;71.40;;;;;;5011302;28;20068;-67
2021/05/08 07:26:12;;;;;;;1.98;1.30;;;11.80;73.90;;;;;;5004125;28;20045;-67
2021/05/08 07:28:39;;;;;;;3.20;1.73;;;11.80;71.60;;;;;;5011628;28;20041;-67
2021/05/08 07:31:06;;;;;;;2.88;0.98;;;11.80;70.60;;;;;;5025463;28;20050;-67
2021/05/08 07:33:32;;;;;;;2.00;1.00;;;11.70;68.80;;;;;;5028249;28;20045;-67
2021/05/08 07:35:59;;;;;;;2.33;1.08;;;11.80;70.10;;;;;;5025723;28;20650;-67
2021/05/08 07:38:25;;;;;;;2.38;0.95;;;11.90;72.80;;;;;;5026900;28;20057;-67
2021/05/08 07:40:53;;;;;;;1.55;0.50;;;11.90;67.50;;;;;;5010716;28;20057;-67
2021/05/08 07:43:20;;;;;;;2.78;1.15;;;12.00;70.20;;;;;;5030058;28;20504;-67
2021/05/08 07:45:47;;;;;;;1.83;1.20;;;12.10;67.90;;;;;;5026829;28;20523;-67
2021/05/08 07:48:14;;;;;;;2.72;1.00;;;12.10;67.60;;;;;;5022917;28;20046;-67
2021/05/08 07:50:41;;;;;;;2.78;1.20;;;12.00;66.80;;;;;;5025975;28;20140;-67
2021/05/08 07:53:08;;;;;;;2.47;1.00;;;12.10;68.80;;;;;;5013147;28;20058;-67
2021/05/08 07:55:35;;;;;;;3.38;1.27;;;12.20;71.40;;;;;;5024493;28;20049;-67
2021/05/08 07:58:06;;;;;;;3.13;1.23;;;12.30;71.00;;;;;;4991729;28;20061;-69
2021/05/08 08:00:34;;;;;;;2.80;1.10;;;12.50;68.90;;;;;;5028291;28;20073;-67
2021/05/08 08:03:01;;;;;;;3.65;1.35;;;12.50;67.10;;;;;;5009897;28;20427;-68
2021/05/08 08:05:27;;;;;;;2.03;1.05;;;12.50;66.20;;;;;;4989885;28;20046;-67
2021/05/08 08:07:55;;;;;;;1.77;0.90;;;12.60;66.90;;;;;;5027685;28;20053;-67
2021/05/08 08:10:22;;;;;;;1.40;0.65;;;12.60;65.70;;;;;;5029850;28;20049;-67
2021/05/08 08:12:48;;;;;;;2.25;1.13;;;12.70;63.70;;;;;;5010535;28;20107;-67
2021/05/08 08:15:16;;;;;;;2.33;0.80;;;12.70;64.40;;;;;;5028009;28;20496;-67
2021/05/08 08:17:43;;;;;;;2.00;0.73;;;12.70;65.60;;;;;;5015013;28;20569;-67
2021/05/08 08:20:12;;;;;;;2.42;1.02;;;12.80;65.10;;;;;;5026247;28;20095;-67
2021/05/08 08:22:41;;;;;;;1.60;0.80;;;12.70;64.50;;;;;;5049689;28;20049;-67
2021/05/08 08:25:11;;;;;;;2.67;0.90;;;12.90;66.40;;;;;;5046596;28;20053;-67
2021/05/08 08:27:38;;;;;;;2.00;0.70;;;13.00;66.20;;;;;;5030000;28;20056;-67
2021/05/08 08:30:07;;;;;;;2.10;0.80;;;13.10;64.80;;;;;;5044269;28;20058;-68
2021/05/08 08:32:34;;;;;;;1.10;0.40;;;13.20;63.40;;;;;;5011125;28;20496;-68
2021/05/08 08:35:01;;;;;;;0.77;0.38;;;13.20;60.00;;;;;;5012510;28;20408;-67
2021/05/08 08:37:27;;;;;;;1.85;0.73;;;13.30;62.50;;;;;;5049112;28;20404;-67
2021/05/08 08:39:55;;;;;;;1.88;0.80;;;13.40;62.80;;;;;;5048325;28;20140;-67
2021/05/08 08:42:22;;;;;;;1.52;0.63;;;13.30;58.20;;;;;;5030564;28;20049;-68
2021/05/08 08:44:49;;;;;;;1.60;0.75;;;13.30;61.30;;;;;;5012654;28;20045;-68
2021/05/08 08:47:28;;;;;;;1.42;0.60;;;13.40;59.50;;;;;;5048281;28;20060;-68
2021/05/08 08:50:10;;;;;;;1.52;0.70;;;13.50;60.80;;;;;;5049223;28;20550;-67
2021/05/08 08:52:38;;;;;;;1.77;0.40;;;13.40;59.60;;;;;;5054617;28;20066;-67
2021/05/08 08:55:10;;;;;;;1.50;0.70;;;13.50;58.70;;;;;;5028760;28;20045;-67
2021/05/08 08:57:45;;;;;;;1.17;0.50;;;13.60;59.00;;;;;;5028798;28;20053;-67
2021/05/08 09:00:16;;;;;;;1.70;0.60;;;13.50;58.60;;;;;;5031863;28;20072;-67
2021/05/08 09:02:45;;;;;;;3.45;1.08;;;13.60;59.30;;;;;;5029654;28;20116;-67
2021/05/08 09:05:15;;;;;;;2.10;0.40;;;13.60;59.30;;;;;;5015559;28;20057;-67
2021/05/08 09:07:47;;;;;;;1.63;0.50;;;13.70;58.20;;;;;;5044980;28;20539;-67
2021/05/08 09:10:29;;;;;;;2.17;1.17;;;13.80;60.20;;;;;;5023514;28;20064;-71
2021/05/08 09:12:59;;;;;;;1.48;0.50;;;13.90;57.60;;;;;;5027586;28;20060;-70
2021/05/08 09:15:34;;;;;;;1.63;0.52;;;13.90;56.40;;;;;;5028117;28;20057;-67
2021/05/08 09:18:02;;;;;;;1.40;0.45;;;13.80;57.30;;;;;;5031952;28;20392;-67
2021/05/08 09:20:45;;;;;;;2.08;0.55;;;13.90;58.20;;;;;;5021119;28;20506;-67
2021/05/08 09:23:41;;;;;;;0.90;0.30;;;13.80;56.40;;;;;;5046150;28;20049;-68
2021/05/08 09:26:10;;;;;;;0.88;0.28;;;13.80;56.20;;;;;;5038728;28;20072;-67
2021/05/08 09:28:39;;;;;;;1.20;0.43;;;13.90;54.50;;;;;;5012463;28;20052;-67
2021/05/08 09:31:11;;;;;;;1.88;1.05;;;13.90;55.20;;;;;;5023773;28;20110;-67
2021/05/08 09:33:38;;;;;;;1.52;0.40;;;14.10;55.10;;;;;;5045327;28;20724;-67
2021/05/08 09:36:10;;;;;;;1.00;0.30;;;14.10;54.70;;;;;;5046739;28;20082;-67
2021/05/08 09:38:42;;;;;;;1.67;0.52;;;14.30;55.80;;;;;;5031022;28;20048;-68
2021/05/08 09:41:10;;;;;;;0.73;0.30;;;14.40;53.40;;;;;;5029597;28;20049;-68
2021/05/08 09:43:38;;;;;;;0.70;0.30;;;14.50;52.40;;;;;;5028994;28;20041;-67
2021/05/08 09:46:06;;;;;;;0.95;0.30;;;14.60;55.00;;;;;;5048439;28;20045;-68
2021/05/08 09:48:37;;;;;;;1.30;0.30;;;14.80;54.90;;;;;;5048549;28;20057;-71
2021/05/08 09:51:29;;;;;;;1.02;0.40;;;14.80;52.30;;;;;;5039317;28;20048;-68
2021/05/08 09:54:13;;;;;;;3.15;0.75;;;14.90;52.60;;;;;;5049247;28;20056;-68
2021/05/08 09:56:43;;;;;;;1.40;0.80;;;14.80;51.90;;;;;;5027162;28;20488;-67
2021/05/08 09:59:30;;;;;;;2.05;0.65;;;14.70;51.50;;;;;;5048480;28;20580;-68
2021/05/08 10:02:06;;;;;;;1.50;0.60;;;14.70;53.30;;;;;;5017916;28;20065;-68
2021/05/08 10:04:52;;;;;;;2.90;0.37;;;14.90;54.70;;;;;;5045384;28;20053;-67
2021/05/08 10:07:24;;;;;;;2.50;0.77;;;15.10;51.60;;;;;;5046309;28;20057;-68
2021/05/08 10:09:56;;;;;;;1.45;0.68;;;15.10;50.90;;;;;;5044845;28;20049;-71
2021/05/08 10:12:25;;;;;;;0.70;0.30;;;15.20;53.90;;;;;;5025603;28;20053;-70
2021/05/08 10:14:54;;;;;;;5.85;0.40;;;15.30;50.80;;;;;;5027133;28;20057;-70
2021/05/08 10:17:25;;;;;;;1.50;0.43;;;15.40;50.70;;;;;;5041510;28;20053;-69
2021/05/08 10:20:06;;;;;;;1.38;0.32;;;15.30;49.20;;;;;;5028125;28;20048;-69
2021/05/08 10:22:37;;;;;;;1.13;0.40;;;15.30;50.60;;;;;;5028463;28;20061;-69
2021/05/08 10:25:06;;;;;;;1.42;0.50;;;15.60;52.30;;;;;;5047792;28;20099;-69
2021/05/08 10:27:32;;;;;;;0.73;0.43;;;15.70;49.20;;;;;;5027262;28;20083;-69
2021/05/08 10:30:00;;;;;;;1.08;0.30;;;15.70;47.90;;;;;;5025774;28;20061;-69
2021/05/08 10:32:29;;;;;;;1.05;0.32;;;15.80;50.40;;;;;;5044045;28;20045;-67
2021/05/08 10:35:03;;;;;;;0.60;0.20;;;16.00;49.40;;;;;;5028277;28;20415;-67
2021/05/08 10:37:30;;;;;;;2.05;0.35;;;16.00;48.10;;;;;;5016345;28;20053;-67
2021/05/08 10:40:06;;;;;;;1.85;0.40;;;16.10;48.10;;;;;;5045362;28;20050;-67
2021/05/08 10:42:34;;;;;;;2.97;0.93;;;16.20;45.80;;;;;;5040943;28;20723;-67
2021/05/08 10:45:17;;;;;;;1.38;0.30;;;16.30;46.80;;;;;;5046246;28;20041;-67
2021/05/08 10:47:56;;;;;;;1.02;0.38;;;16.40;45.40;;;;;;5041324;28;20049;-69
2021/05/08 10:50:24;;;;;;;0.90;0.30;;;16.70;46.30;;;;;;5027726;28;20493;-70
2021/05/08 10:53:10;;;;;;;2.70;0.40;;;16.80;44.70;;;;;;5047811;28;20060;-70
2021/05/08 10:55:48;;;;;;;1.25;0.60;;;16.80;45.30;;;;;;5030679;28;20049;-69
2021/05/08 10:58:25;;;;;;;1.27;0.25;;;16.70;46.70;;;;;;5028760;28;20057;-69
2021/05/08 11:01:00;;;;;;;0.80;0.30;;;16.60;46.50;;;;;;5029410;28;20515;-70
2021/05/08 11:03:30;;;;;;;1.02;0.30;;;16.70;48.60;;;;;;5029063;28;20404;-70
2021/05/08 11:06:07;;;;;;;2.03;0.30;;;17.00;48.20;;;;;;5026233;28;20053;-71
2021/05/08 11:08:34;;;;;;;0.80;0.50;;;17.20;44.80;;;;;;5028029;28;20053;-70
2021/05/08 11:11:10;;;;;;;1.42;0.30;;;17.10;45.30;;;;;;5027490;28;20102;-71
2021/05/08 11:13:44;;;;;;;0.90;0.45;;;17.10;45.20;;;;;;5027486;28;20056;-70
2021/05/08 11:16:19;;;;;;;1.23;0.30;;;17.30;48.10;;;;;;5041434;28;20045;-72
2021/05/08 11:18:46;;;;;;;2.00;0.77;;;17.50;48.10;;;;;;5028512;28;20060;-71
2021/05/08 11:21:18;;;;;;;1.45;0.60;;;17.60;44.80;;;;;;5031442;28;20049;-72
2021/05/08 11:24:09;;;;;;;0.73;0.20;;;16.80;42.30;;;;;;5016235;28;20053;-72
2021/05/08 11:26:44;;;;;;;1.10;0.50;;;17.10;46.70;;;;;;5018630;28;20045;-72
2021/05/08 11:29:25;;;;;;;6.57;1.20;;;17.30;45.10;;;;;;5047801;28;20049;-72
2021/05/08 11:31:54;;;;;;;2.38;0.80;;;17.40;45.50;;;;;;5030038;28;20054;-72
2021/05/08 11:34:26;;;;;;;2.75;0.88;;;17.70;44.40;;;;;;5032405;28;20076;-72
2021/05/08 11:37:04;;;;;;;1.92;0.77;;;17.80;43.20;;;;;;5032453;28;20492;-72
2021/05/08 11:39:42;;;;;;;3.00;0.40;;;17.80;46.80;;;;;;5035795;28;20403;-71
2021/05/08 11:42:20;;;;;;;0.80;0.32;;;18.10;44.60;;;;;;5049200;28;20049;-72
2021/05/08 11:45:00;;;;;;;1.88;0.20;;;18.00;40.60;;;;;;5046522;28;20566;-70
2021/05/08 11:50:03;;;;;;;1.98;0.70;;;18.60;43.20;;;;;;5049388;28;20045;-70
2021/05/08 11:52:37;;;;;;;2.42;0.70;;;19.00;42.10;;;;;;5029768;28;20119;-72
2021/05/08 11:55:16;;;;;;;2.55;0.77;;;18.90;39.30;;;;;;5029998;28;20428;-72
2021/05/08 11:57:49;;;;;;;2.05;0.70;;;19.10;41.30;;;;;;5013268;28;20415;-71
2021/05/08 12:00:35;;;;;;;1.10;0.30;;;19.30;42.70;;;;;;5051607;28;20049;-71
2021/05/08 12:03:09;;;;;;;0.80;0.30;;;19.80;41.00;;;;;;5028825;28;20041;-70
2021/05/08 12:05:37;;;;;;;1.80;0.52;;;20.10;39.00;;;;;;5013382;28;20569;-71
2021/05/08 12:08:05;;;;;;;1.35;0.50;;;20.70;38.80;;;;;;5051634;28;20516;-71
2021/05/08 12:10:41;;;;;;;3.13;0.47;;;21.30;37.70;;;;;;5029828;28;20063;-72
2021/05/08 12:13:09;;;;;;;0.88;0.32;;;21.10;36.80;;;;;;5014916;28;20037;-71
2021/05/08 12:15:40;;;;;;;0.93;0.45;;;21.40;37.40;;;;;;5026557;28;20056;-71
2021/05/08 12:18:12;;;;;;;0.80;0.30;;;21.10;35.90;;;;;;5011812;28;20107;-70
2021/05/08 12:20:48;;;;;;;1.00;0.32;;;21.90;35.10;;;;;;5015284;28;20063;-72
2021/05/08 12:23:23;;;;;;;0.65;0.30;;;22.90;36.80;;;;;;5004843;28;20520;-72
2021/05/08 12:26:11;;;;;;;0.77;0.40;;;23.80;34.20;;;;;;5007462;28;20144;-71
2021/05/08 12:28:39;;;;;;;1.13;0.20;;;24.50;31.40;;;;;;4998827;28;20140;-72
2021/05/08 12:31:32;;;;;;;0.70;0.28;;;24.40;32.50;;;;;;5008557;28;20107;-72
2021/05/08 12:34:07;;;;;;;2.08;0.38;;;24.90;33.10;;;;;;5012832;28;20507;-71
2021/05/08 12:36:35;;;;;;;0.80;0.38;;;25.40;31.90;;;;;;5012570;28;20057;-72
2021/05/08 12:39:23;;;;;;;1.00;0.30;;;25.40;30.70;;;;;;5008959;28;20448;-72
2021/05/08 12:41:58;;;;;;;1.65;0.40;;;26.00;30.70;;;;;;5009197;28;20474;-71
2021/05/08 12:44:52;;;;;;;1.30;0.50;;;26.00;30.00;;;;;;5007331;28;20516;-70
2021/05/08 12:47:23;;;;;;;0.47;0.20;;;25.50;29.70;;;;;;5009248;28;20049;-71
2021/05/08 12:50:06;;;;;;;0.73;0.30;;;25.10;31.10;;;;;;4993817;28;20045;-71
2021/05/08 12:52:34;;;;;;;1.63;0.30;;;25.50;31.10;;;;;;5008801;28;20124;-70
2021/05/08 12:55:01;;;;;;;0.68;0.10;;;25.80;30.60;;;;;;5008745;28;20489;-70
2021/05/08 12:57:30;;;;;;;0.75;0.28;;;25.90;31.20;;;;;;5028870;28;20065;-68
2021/05/08 12:59:58;;;;;;;3.45;0.20;;;25.90;30.00;;;;;;5011806;28;20084;-68
2021/05/08 13:02:28;;;;;;;1.17;0.40;;;25.60;30.40;;;;;;4990343;28;20072;-67
2021/05/08 13:05:18;;;;;;;0.75;0.32;;;25.80;30.30;;;;;;5010212;28;20057;-67